Time;durP1;ratioP1;P1;durP2;ratioP2;P2;SDS_P1;SDS_P2;PMS_P1;PMS_P2;Temp;Humidity;BMP_temperature;BMP_pressure;BME280_temperature;BME280_humidity;BME280_pressure;Samples;Min_cycle;Max_cycle;Signal;HPM_P1;HPM_P2
2021/01/11 00:02:02;;;;;;;6.17;2.60;;;-8.00;99.90;;;;;;4979552;28;20207;-70
2021/01/11 00:04:28;;;;;;;4.13;2.63;;;-8.00;99.90;;;;;;4980841;28;20243;-70
2021/01/11 00:06:54;;;;;;;4.00;2.50;;;-7.90;99.90;;;;;;4976472;28;20208;-70
2021/01/11 00:09:21;;;;;;;7.20;2.97;;;-7.90;99.90;;;;;;4979004;28;20211;-70
2021/01/11 00:11:46;;;;;;;4.43;2.57;;;-7.80;99.90;;;;;;4977701;28;20204;-70
2021/01/11 00:14:12;;;;;;;6.67;3.00;;;-7.80;99.90;;;;;;4977293;28;20199;-70
2021/01/11 00:16:38;;;;;;;8.20;2.80;;;-7.80;99.90;;;;;;4979946;28;20282;-70
2021/01/11 00:19:03;;;;;;;7.70;3.47;;;-7.70;99.90;;;;;;4978085;28;20204;-70
2021/01/11 00:21:29;;;;;;;8.33;3.60;;;-7.70;99.90;;;;;;4978912;28;20210;-70
2021/01/11 00:23:56;;;;;;;9.47;3.53;;;-7.60;99.90;;;;;;4979289;28;20788;-70
2021/01/11 00:26:22;;;;;;;7.53;3.47;;;-7.60;99.90;;;;;;4980071;28;20302;-70
2021/01/11 00:28:47;;;;;;;7.50;3.67;;;-7.60;99.90;;;;;;4975186;28;20287;-70
2021/01/11 00:31:24;;;;;;;11.63;4.53;;;-7.50;99.90;;;;;;4977356;28;20203;-71
2021/01/11 00:33:51;;;;;;;7.77;4.00;;;-7.40;99.90;;;;;;4976067;28;20284;-70
2021/01/11 00:36:17;;;;;;;11.77;4.50;;;-7.40;99.90;;;;;;4977866;28;20210;-70
2021/01/11 00:38:42;;;;;;;11.97;4.50;;;-7.30;99.90;;;;;;4977943;28;20207;-70
2021/01/11 00:41:08;;;;;;;9.77;4.20;;;-7.30;99.90;;;;;;4976403;28;20231;-70
2021/01/11 00:43:34;;;;;;;13.67;4.13;;;-7.20;99.90;;;;;;4973608;28;20942;-70
2021/01/11 00:46:00;;;;;;;11.03;5.03;;;-7.20;99.90;;;;;;4974112;28;20319;-71
2021/01/11 00:48:25;;;;;;;9.07;4.03;;;-7.10;99.90;;;;;;4977876;28;20207;-70
2021/01/11 00:50:51;;;;;;;8.30;4.20;;;-7.10;99.90;;;;;;4976590;28;20577;-70
2021/01/11 00:53:17;;;;;;;9.77;4.20;;;-7.00;99.90;;;;;;4977082;28;20670;-70
2021/01/11 00:55:42;;;;;;;8.77;3.97;;;-7.00;99.90;;;;;;4974213;28;20212;-70
2021/01/11 00:58:08;;;;;;;7.67;3.70;;;-6.90;99.90;;;;;;4976905;28;20313;-70
2021/01/11 01:00:34;;;;;;;7.63;3.37;;;-6.80;99.90;;;;;;4978390;28;20266;-70
2021/01/11 01:03:00;;;;;;;6.60;2.90;;;-6.70;99.90;;;;;;4974988;28;20212;-70
2021/01/11 01:05:25;;;;;;;6.30;2.70;;;-6.60;99.90;;;;;;4974043;28;20264;-70
2021/01/11 01:07:51;;;;;;;6.77;3.07;;;-6.50;99.90;;;;;;4974706;28;20200;-70
2021/01/11 01:10:17;;;;;;;5.90;3.10;;;-6.50;99.90;;;;;;4974377;28;20306;-70
2021/01/11 01:12:42;;;;;;;5.67;2.80;;;-6.40;99.90;;;;;;4979714;28;20585;-70
2021/01/11 01:15:10;;;;;;;10.00;3.10;;;-6.30;99.90;;;;;;4976870;28;20224;-70
2021/01/11 01:17:36;;;;;;;3.95;2.50;;;-6.30;99.90;;;;;;4977806;28;20218;-70
2021/01/11 01:20:10;;;;;;;6.23;3.13;;;-6.20;99.90;;;;;;4971778;28;20200;-70
2021/01/11 01:22:36;;;;;;;9.40;3.07;;;-6.20;99.90;;;;;;4973183;28;21051;-70
2021/01/11 01:25:01;;;;;;;5.53;3.13;;;-6.20;99.90;;;;;;4972429;28;20215;-70
2021/01/11 01:27:27;;;;;;;4.65;2.88;;;-6.10;99.90;;;;;;4975298;28;20324;-70
2021/01/11 01:29:52;;;;;;;5.60;2.93;;;-6.00;99.90;;;;;;4970629;28;20198;-70
2021/01/11 01:32:18;;;;;;;5.67;2.77;;;-6.00;99.90;;;;;;4974968;28;20235;-70
2021/01/11 01:34:44;;;;;;;7.90;2.77;;;-5.90;99.90;;;;;;4971890;28;20685;-70
2021/01/11 01:37:09;;;;;;;6.17;2.60;;;-5.90;99.90;;;;;;4976207;28;20668;-70
2021/01/11 01:39:35;;;;;;;6.17;3.00;;;-5.90;99.90;;;;;;4973512;28;20286;-70
2021/01/11 01:42:01;;;;;;;7.83;2.80;;;-5.90;99.90;;;;;;4973461;28;20193;-70
2021/01/11 01:44:26;;;;;;;7.73;2.80;;;-5.90;99.90;;;;;;4973122;28;20203;-70
2021/01/11 01:46:53;;;;;;;6.77;2.97;;;-5.90;99.90;;;;;;4978392;28;20243;-70
2021/01/11 01:49:18;;;;;;;5.17;3.10;;;-5.80;99.90;;;;;;4978599;28;20329;-70
2021/01/11 01:51:44;;;;;;;3.20;2.40;;;-5.80;99.90;;;;;;4976918;28;20683;-70
2021/01/11 01:54:10;;;;;;;7.60;3.10;;;-5.70;99.90;;;;;;4976062;28;20574;-70
2021/01/11 01:56:36;;;;;;;5.30;2.90;;;-5.70;99.90;;;;;;4979337;28;20200;-70
2021/01/11 01:59:02;;;;;;;6.35;2.95;;;-5.60;99.90;;;;;;4980634;28;20212;-70
2021/01/11 02:01:28;;;;;;;9.57;2.92;;;-5.50;99.90;;;;;;4977067;28;20216;-69
2021/01/11 02:03:54;;;;;;;5.53;2.60;;;-5.50;99.90;;;;;;4973645;28;20203;-70
2021/01/11 02:06:20;;;;;;;7.35;2.97;;;-5.40;99.90;;;;;;4978161;28;20219;-68
2021/01/11 02:08:51;;;;;;;7.67;2.70;;;-5.30;99.90;;;;;;4977224;28;20286;-68
2021/01/11 02:11:50;;;;;;;5.18;2.65;;;-5.30;99.90;;;;;;4979180;28;20254;-70
2021/01/11 02:14:47;;;;;;;9.40;3.30;;;-5.20;99.90;;;;;;4975014;28;20198;-69
2021/01/11 02:17:21;;;;;;;4.67;2.93;;;-5.10;99.90;;;;;;4978283;28;20265;-70
2021/01/11 02:20:13;;;;;;;7.50;2.97;;;-5.10;99.90;;;;;;4974399;28;20199;-69
2021/01/11 02:22:57;;;;;;;6.25;2.80;;;-5.00;99.90;;;;;;4978587;28;20679;-70
2021/01/11 02:25:40;;;;;;;6.43;2.90;;;-5.00;99.90;;;;;;4978291;28;20230;-68
2021/01/11 02:28:50;;;;;;;7.90;2.80;;;-5.00;99.90;;;;;;4972271;28;20198;-70
2021/01/11 02:31:18;;;;;;;6.30;2.88;;;-4.90;99.90;;;;;;4975159;28;20240;-68
2021/01/11 02:33:45;;;;;;;7.85;3.17;;;-5.00;99.90;;;;;;4975901;28;20258;-69
2021/01/11 02:36:12;;;;;;;8.90;2.95;;;-4.90;99.90;;;;;;4975848;28;20195;-69
2021/01/11 02:38:39;;;;;;;8.27;2.60;;;-4.90;99.90;;;;;;4979978;28;20262;-68
2021/01/11 02:41:05;;;;;;;9.73;2.80;;;-4.80;99.90;;;;;;4977883;28;20599;-69
2021/01/11 02:43:30;;;;;;;3.10;2.28;;;-4.80;99.90;;;;;;4978420;28;20196;-69
2021/01/11 02:45:56;;;;;;;9.43;3.05;;;-4.80;99.90;;;;;;4974217;28;20679;-68
2021/01/11 02:48:41;;;;;;;8.37;3.10;;;-4.80;99.90;;;;;;4975379;28;21083;-69
2021/01/11 02:51:21;;;;;;;7.28;3.00;;;-4.70;99.90;;;;;;4974452;28;20195;-69
2021/01/11 02:54:17;;;;;;;6.43;2.75;;;-4.60;99.90;;;;;;4976672;28;20262;-69
2021/01/11 02:57:15;;;;;;;8.15;2.70;;;-4.50;99.90;;;;;;4978700;28;20229;-69
2021/01/11 02:59:49;;;;;;;7.80;3.22;;;-4.50;99.90;;;;;;4975087;28;20204;-69
2021/01/11 03:02:17;;;;;;;7.30;2.80;;;-4.40;99.90;;;;;;4976497;28;20203;-69
2021/01/11 03:04:44;;;;;;;9.02;3.00;;;-4.30;99.90;;;;;;4973279;28;20652;-69
2021/01/11 03:07:11;;;;;;;8.45;2.88;;;-4.30;99.90;;;;;;4977509;28;20227;-69
2021/01/11 03:09:42;;;;;;;10.80;3.35;;;-4.20;99.90;;;;;;4977720;28;20262;-69
2021/01/11 03:12:09;;;;;;;8.30;3.10;;;-4.20;99.90;;;;;;4977821;28;20739;-69
2021/01/11 03:14:35;;;;;;;7.70;3.20;;;-4.20;99.90;;;;;;4976468;28;20655;-69
2021/01/11 03:17:01;;;;;;;6.90;3.22;;;-4.20;99.90;;;;;;4976749;28;20839;-68
2021/01/11 03:19:27;;;;;;;8.07;2.80;;;-4.20;99.90;;;;;;4972214;28;20203;-69
2021/01/11 03:21:53;;;;;;;10.02;3.22;;;-4.10;99.90;;;;;;4974577;28;20210;-69
2021/01/11 03:24:20;;;;;;;10.38;3.25;;;-4.10;99.90;;;;;;4973536;28;20235;-69
2021/01/11 03:26:46;;;;;;;10.38;2.92;;;-4.00;99.90;;;;;;4976509;28;20228;-69
2021/01/11 03:29:12;;;;;;;11.85;3.80;;;-4.00;99.90;;;;;;4973016;28;20628;-69
2021/01/11 03:31:40;;;;;;;9.18;3.47;;;-3.90;99.90;;;;;;4971261;28;20199;-69
2021/01/11 03:34:07;;;;;;;10.20;3.10;;;-3.90;99.90;;;;;;4975560;28;20264;-70
2021/01/11 03:36:33;;;;;;;18.23;3.22;;;-3.80;99.90;;;;;;4970660;28;20207;-69
2021/01/11 03:38:59;;;;;;;10.38;3.05;;;-3.70;99.90;;;;;;4973731;28;20257;-69
2021/01/11 03:41:25;;;;;;;13.18;3.05;;;-3.70;99.90;;;;;;4972685;28;20237;-69
2021/01/11 03:43:50;;;;;;;6.75;2.80;;;-3.70;99.90;;;;;;4971485;28;20202;-68
2021/01/11 03:46:17;;;;;;;11.15;3.50;;;-3.60;99.90;;;;;;4972506;28;20204;-69
2021/01/11 03:48:44;;;;;;;9.80;3.13;;;-3.60;99.90;;;;;;4973578;28;20188;-70
2021/01/11 03:51:10;;;;;;;4.97;3.03;;;-3.50;99.90;;;;;;4973379;28;20849;-69
2021/01/11 03:53:37;;;;;;;9.13;2.72;;;-3.40;99.90;;;;;;4969865;28;20227;-70
2021/01/11 03:56:07;;;;;;;5.45;2.90;;;-3.30;99.90;;;;;;4970142;28;20200;-69
2021/01/11 03:58:33;;;;;;;7.68;2.88;;;-3.30;99.90;;;;;;4971115;28;20286;-68
2021/01/11 04:00:59;;;;;;;6.78;2.75;;;-3.20;99.90;;;;;;4977754;28;20290;-69
2021/01/11 04:03:26;;;;;;;7.78;2.33;;;-3.20;99.90;;;;;;4978210;28;20326;-70
2021/01/11 04:05:52;;;;;;;4.53;2.40;;;-3.10;99.90;;;;;;4978553;28;20285;-69
2021/01/11 04:08:18;;;;;;;12.60;2.92;;;-3.00;99.90;;;;;;4980216;28;20269;-70
2021/01/11 04:10:44;;;;;;;8.50;2.28;;;-2.80;99.90;;;;;;4979012;28;20203;-70
2021/01/11 04:13:09;;;;;;;11.85;2.50;;;-2.70;99.90;;;;;;4975188;28;20284;-69
2021/01/11 04:15:35;;;;;;;7.78;2.15;;;-2.20;99.90;;;;;;4975098;28;20214;-70
2021/01/11 04:18:01;;;;;;;4.97;2.13;;;-1.80;99.90;;;;;;4974892;28;20236;-69
2021/01/11 04:20:27;;;;;;;5.32;2.13;;;-1.60;99.90;;;;;;4976969;28;20210;-69
2021/01/11 04:22:53;;;;;;;10.90;2.60;;;-1.40;99.90;;;;;;4972877;28;20926;-70
2021/01/11 04:25:19;;;;;;;11.27;3.05;;;-1.20;99.90;;;;;;4975619;28;20682;-70
2021/01/11 04:27:45;;;;;;;6.15;2.10;;;-1.20;99.90;;;;;;4974687;28;20594;-69
2021/01/11 04:30:11;;;;;;;18.58;2.22;;;-1.00;99.90;;;;;;4975386;28;20196;-69
2021/01/11 04:32:40;;;;;;;10.48;2.00;;;-1.00;99.90;;;;;;4970009;28;20265;-68
2021/01/11 04:35:08;;;;;;;12.38;2.22;;;-1.00;99.90;;;;;;4970453;28;20204;-71
2021/01/11 04:37:35;;;;;;;8.77;2.10;;;-0.90;99.90;;;;;;4972094;28;20286;-70
2021/01/11 04:40:01;;;;;;;5.38;2.00;;;-0.80;99.90;;;;;;4975321;28;20279;-70
2021/01/11 04:42:47;;;;;;;5.43;2.08;;;-0.60;99.90;;;;;;4974038;28;20286;-70
2021/01/11 04:45:17;;;;;;;5.57;2.05;;;-0.50;99.90;;;;;;4973520;28;20258;-69
2021/01/11 04:47:44;;;;;;;12.15;2.03;;;-0.40;99.90;;;;;;4974448;28;20267;-68
2021/01/11 04:50:11;;;;;;;3.47;1.65;;;-0.40;99.90;;;;;;4976417;28;20869;-70
2021/01/11 04:52:38;;;;;;;5.65;2.00;;;-0.30;99.90;;;;;;4975889;28;20226;-70
2021/01/11 04:55:06;;;;;;;5.25;1.98;;;-0.30;99.90;;;;;;4974229;28;20536;-69
2021/01/11 04:57:38;;;;;;;5.90;2.00;;;-0.30;99.90;;;;;;4975561;28;20250;-69
2021/01/11 05:00:10;;;;;;;7.45;1.80;;;-0.30;99.90;;;;;;4973118;28;20675;-70
2021/01/11 05:02:42;;;;;;;5.15;1.70;;;-0.20;99.90;;;;;;4971769;28;20257;-71
2021/01/11 05:05:08;;;;;;;7.05;1.85;;;-0.20;99.90;;;;;;4972460;28;20222;-69
2021/01/11 05:07:34;;;;;;;5.30;1.80;;;-0.20;99.90;;;;;;4977137;28;20257;-70
2021/01/11 05:10:00;;;;;;;4.95;1.88;;;-0.20;99.90;;;;;;4980044;28;20614;-69
2021/01/11 05:12:27;;;;;;;7.15;1.73;;;-0.10;99.90;;;;;;4980023;28;20705;-69
2021/01/11 05:15:15;;;;;;;8.40;1.55;;;-0.10;99.90;;;;;;4980326;28;20273;-69
2021/01/11 05:17:45;;;;;;;7.35;1.80;;;-0.10;99.90;;;;;;4980663;28;20230;-69
2021/01/11 05:20:13;;;;;;;5.57;1.80;;;-0.10;99.90;;;;;;4974236;28;21538;-69
2021/01/11 05:22:40;;;;;;;7.38;1.58;;;0.00;99.90;;;;;;4978860;28;20221;-69
2021/01/11 05:25:34;;;;;;;4.28;1.42;;;0.00;99.90;;;;;;4976536;28;20276;-70
2021/01/11 05:28:18;;;;;;;2.78;1.60;;;0.10;99.90;;;;;;4973285;28;20212;-70
2021/01/11 05:30:46;;;;;;;5.60;1.50;;;0.10;99.90;;;;;;4978665;28;20283;-71
2021/01/11 05:33:24;;;;;;;2.28;1.55;;;0.10;99.90;;;;;;4978825;28;20197;-70
2021/01/11 05:36:12;;;;;;;3.50;1.40;;;0.20;99.90;;;;;;4963422;28;20207;-70
2021/01/11 05:38:46;;;;;;;5.68;1.85;;;0.30;99.90;;;;;;4973084;28;20294;-70
2021/01/11 05:41:19;;;;;;;2.92;1.45;;;0.30;99.90;;;;;;4967978;28;20836;-70
2021/01/11 05:43:49;;;;;;;2.83;1.55;;;0.30;99.90;;;;;;4968574;28;20251;-69
2021/01/11 05:46:25;;;;;;;3.67;1.70;;;0.30;99.90;;;;;;4969921;28;20324;-70
2021/01/11 05:48:57;;;;;;;4.20;1.63;;;0.30;99.90;;;;;;4966393;28;20202;-69
2021/01/11 05:51:24;;;;;;;7.95;1.60;;;0.30;99.90;;;;;;4969324;28;20246;-69
2021/01/11 05:53:50;;;;;;;3.40;1.58;;;0.30;99.90;;;;;;4969429;28;20247;-69
2021/01/11 05:56:15;;;;;;;5.93;1.80;;;0.30;99.90;;;;;;4979978;28;20199;-71
2021/01/11 05:58:42;;;;;;;5.97;1.75;;;0.40;99.90;;;;;;4970206;28;20283;-69
2021/01/11 06:01:07;;;;;;;4.47;1.42;;;0.40;99.90;;;;;;4974605;28;20518;-70
2021/01/11 06:03:33;;;;;;;3.33;1.48;;;0.30;99.90;;;;;;4966440;28;20203;-68
2021/01/11 06:06:00;;;;;;;6.60;1.50;;;0.40;99.90;;;;;;4975113;28;20256;-70
2021/01/11 06:08:26;;;;;;;4.85;1.90;;;0.40;99.90;;;;;;4972958;28;20223;-69
2021/01/11 06:10:53;;;;;;;2.05;1.35;;;0.40;99.90;;;;;;4975515;28;20926;-69
2021/01/11 06:13:22;;;;;;;8.27;1.60;;;0.50;99.90;;;;;;4972079;28;20269;-70
2021/01/11 06:15:50;;;;;;;5.80;1.50;;;0.50;99.90;;;;;;4977039;28;20207;-71
2021/01/11 06:18:16;;;;;;;4.35;1.50;;;0.50;99.90;;;;;;4972230;28;20211;-69
2021/01/11 06:20:43;;;;;;;3.17;1.50;;;0.50;99.90;;;;;;4972215;28;20207;-69
2021/01/11 06:23:11;;;;;;;3.30;1.55;;;0.50;99.90;;;;;;4975334;28;20212;-70
2021/01/11 06:25:37;;;;;;;5.53;1.42;;;0.50;99.90;;;;;;4971618;28;20206;-69
2021/01/11 06:28:04;;;;;;;3.42;1.77;;;0.50;99.90;;;;;;4966722;28;20188;-68
2021/01/11 06:30:46;;;;;;;2.50;1.42;;;0.50;99.90;;;;;;4978316;28;20203;-68
2021/01/11 06:33:17;;;;;;;3.45;1.67;;;0.60;99.90;;;;;;4972395;28;20223;-68
2021/01/11 06:35:50;;;;;;;3.97;1.50;;;0.50;99.90;;;;;;4975466;28;21016;-69
2021/01/11 06:38:25;;;;;;;3.22;1.50;;;0.50;99.90;;;;;;4980772;28;20635;-69
2021/01/11 06:41:04;;;;;;;6.28;1.70;;;0.50;99.90;;;;;;4977807;28;20203;-70
2021/01/11 06:43:52;;;;;;;3.13;1.48;;;0.50;99.90;;;;;;4976628;28;20200;-71
2021/01/11 06:46:27;;;;;;;5.35;1.40;;;0.50;99.90;;;;;;4976677;28;20806;-69
2021/01/11 06:48:58;;;;;;;4.38;1.60;;;0.60;99.90;;;;;;4960873;28;20222;-70
2021/01/11 06:52:12;;;;;;;3.08;1.35;;;0.50;99.90;;;;;;4976594;28;20255;-69
2021/01/11 06:54:41;;;;;;;5.15;1.42;;;0.60;99.90;;;;;;4969949;28;20585;-69
2021/01/11 06:57:11;;;;;;;6.13;1.60;;;0.60;99.90;;;;;;4977005;28;20220;-70
2021/01/11 06:59:37;;;;;;;4.47;2.50;;;0.60;99.90;;;;;;4974095;28;20210;-70
2021/01/11 07:02:21;;;;;;;2.90;2.10;;;0.50;99.90;;;;;;4977356;28;20757;-69
2021/01/11 07:04:48;;;;;;;4.80;1.90;;;0.50;99.90;;;;;;4975393;28;20277;-70
2021/01/11 07:07:24;;;;;;;4.90;1.60;;;0.50;99.90;;;;;;4963885;28;20207;-69
2021/01/11 07:09:55;;;;;;;2.47;1.90;;;0.50;99.90;;;;;;4976706;28;20841;-71
2021/01/11 07:12:22;;;;;;;3.60;1.90;;;0.50;99.90;;;;;;4977305;28;20666;-70
2021/01/11 07:15:05;;;;;;;2.22;1.65;;;0.50;99.90;;;;;;4971338;28;20655;-70
2021/01/11 07:17:36;;;;;;;3.17;1.55;;;0.50;99.90;;;;;;4971917;28;20192;-71
2021/01/11 07:20:02;;;;;;;1.90;1.38;;;0.50;99.90;;;;;;4973114;28;20197;-70
2021/01/11 07:22:28;;;;;;;2.15;1.33;;;0.50;99.90;;;;;;4980563;28;20223;-70
2021/01/11 07:24:54;;;;;;;3.63;1.33;;;0.60;99.90;;;;;;4974851;28;20307;-71
2021/01/11 07:27:19;;;;;;;3.70;1.30;;;0.60;99.90;;;;;;4974099;28;22098;-69
2021/01/11 07:29:46;;;;;;;2.65;1.58;;;0.60;99.90;;;;;;4971756;28;20226;-71
2021/01/11 07:32:12;;;;;;;2.88;1.48;;;0.60;99.90;;;;;;4975407;28;20215;-69
2021/01/11 07:34:38;;;;;;;3.15;1.20;;;0.70;99.90;;;;;;4973919;28;20254;-70
2021/01/11 07:37:04;;;;;;;1.15;1.05;;;0.70;99.90;;;;;;4979801;28;20200;-70
2021/01/11 07:39:36;;;;;;;1.42;1.27;;;0.70;99.90;;;;;;4980356;28;20475;-70
2021/01/11 07:42:04;;;;;;;4.18;1.10;;;0.70;99.90;;;;;;4974249;28;20316;-70
2021/01/11 07:44:32;;;;;;;3.67;1.60;;;0.70;99.90;;;;;;4976292;28;20793;-70
2021/01/11 07:46:59;;;;;;;3.65;1.65;;;0.70;99.90;;;;;;4972676;28;20307;-70
2021/01/11 07:49:26;;;;;;;1.30;1.20;;;0.70;99.90;;;;;;4970275;28;20192;-71
2021/01/11 07:51:52;;;;;;;3.17;1.10;;;0.70;99.90;;;;;;4971828;28;20211;-70
2021/01/11 07:54:22;;;;;;;2.08;1.38;;;0.70;99.90;;;;;;4975342;28;20250;-71
2021/01/11 07:56:51;;;;;;;3.97;1.40;;;0.70;99.90;;;;;;4972814;28;20207;-71
2021/01/11 07:59:17;;;;;;;2.38;1.30;;;0.70;99.90;;;;;;4973084;28;20674;-69
2021/01/11 08:01:45;;;;;;;3.30;1.35;;;0.70;99.90;;;;;;4970982;28;20286;-71
2021/01/11 08:04:12;;;;;;;2.53;1.35;;;0.70;99.90;;;;;;4977158;28;20698;-70
2021/01/11 08:06:48;;;;;;;3.00;1.40;;;0.80;99.90;;;;;;4969764;28;20212;-70
2021/01/11 08:09:15;;;;;;;2.63;1.30;;;0.90;99.90;;;;;;4973228;28;20203;-70
2021/01/11 08:11:41;;;;;;;3.10;1.50;;;0.90;99.90;;;;;;4974536;28;20200;-70
2021/01/11 08:14:09;;;;;;;1.75;1.17;;;0.90;99.90;;;;;;4970375;28;21077;-71
2021/01/11 08:16:35;;;;;;;1.73;1.35;;;0.90;99.90;;;;;;4977147;28;20207;-70
2021/01/11 08:19:12;;;;;;;2.00;1.23;;;0.80;99.90;;;;;;4980065;28;20199;-70
2021/01/11 08:21:39;;;;;;;1.63;1.30;;;0.80;99.90;;;;;;4973482;28;21021;-70
2021/01/11 08:24:10;;;;;;;2.83;1.30;;;0.90;99.90;;;;;;4978561;28;20230;-71
2021/01/11 08:26:50;;;;;;;1.60;1.33;;;0.90;99.90;;;;;;4972478;28;20223;-71
2021/01/11 08:29:16;;;;;;;2.60;1.20;;;0.90;99.90;;;;;;4972166;28;20203;-72
2021/01/11 08:31:44;;;;;;;3.45;1.13;;;1.00;99.90;;;;;;4976378;28;20234;-70
2021/01/11 08:34:09;;;;;;;5.60;1.08;;;1.00;99.90;;;;;;4977165;28;20202;-70
2021/01/11 08:36:35;;;;;;;4.15;1.10;;;1.00;99.90;;;;;;4974182;28;20223;-71
2021/01/11 08:39:15;;;;;;;1.20;1.10;;;1.00;99.90;;;;;;4979683;28;20914;-70
2021/01/11 08:41:54;;;;;;;0.98;0.90;;;1.00;99.90;;;;;;4976576;28;20226;-71
2021/01/11 08:44:24;;;;;;;1.10;1.00;;;1.00;99.90;;;;;;4973321;28;20200;-70
2021/01/11 08:46:58;;;;;;;1.58;1.00;;;1.00;99.90;;;;;;4977486;28;20293;-72
2021/01/11 08:49:24;;;;;;;1.55;1.00;;;1.00;99.90;;;;;;4971319;28;20202;-70
2021/01/11 08:51:50;;;;;;;1.35;1.10;;;1.00;99.90;;;;;;4972978;28;20207;-71
2021/01/11 08:54:30;;;;;;;1.17;1.08;;;1.00;99.90;;;;;;4974201;28;20199;-70
2021/01/11 08:56:57;;;;;;;1.10;1.00;;;1.00;99.90;;;;;;4974061;28;20199;-71
2021/01/11 08:59:24;;;;;;;0.80;0.80;;;1.00;99.90;;;;;;4975319;28;20206;-71
2021/01/11 09:01:50;;;;;;;1.42;1.08;;;1.00;99.90;;;;;;4971851;28;20290;-71
2021/01/11 09:04:29;;;;;;;1.75;1.00;;;1.00;99.90;;;;;;4977862;28;20732;-71
2021/01/11 09:06:59;;;;;;;1.17;0.90;;;0.90;99.90;;;;;;4974476;28;20290;-70
2021/01/11 09:09:28;;;;;;;0.93;0.80;;;0.90;99.90;;;;;;4972578;28;20278;-71
2021/01/11 09:12:05;;;;;;;2.35;1.00;;;0.90;99.90;;;;;;4976541;28;20195;-71
2021/01/11 09:14:31;;;;;;;1.20;0.80;;;0.90;99.90;;;;;;4971111;28;20203;-70
2021/01/11 09:17:06;;;;;;;1.55;1.00;;;0.90;99.90;;;;;;4975642;28;20211;-70
2021/01/11 09:19:32;;;;;;;1.15;0.90;;;0.90;99.90;;;;;;4973397;28;20293;-70
2021/01/11 09:22:27;;;;;;;0.77;0.77;;;0.90;99.90;;;;;;4975041;28;21800;-70
2021/01/11 09:24:51;;;;;;;0.93;0.90;;;0.90;99.90;;;;;;4973053;28;20219;-71
2021/01/11 09:27:17;;;;;;;0.85;0.80;;;0.90;99.90;;;;;;4971797;28;20269;-71
2021/01/11 09:29:42;;;;;;;1.00;0.90;;;0.90;99.90;;;;;;4971279;28;20195;-72
2021/01/11 09:32:08;;;;;;;1.60;0.98;;;0.80;99.90;;;;;;4970344;28;20386;-71
2021/01/11 09:34:34;;;;;;;0.90;0.90;;;0.90;99.90;;;;;;4971630;28;20198;-71
2021/01/11 09:36:59;;;;;;;1.88;0.90;;;0.90;99.90;;;;;;4966922;28;20210;-71
2021/01/11 09:39:25;;;;;;;1.30;1.00;;;0.90;99.90;;;;;;4975662;28;20226;-72
2021/01/11 09:41:56;;;;;;;1.50;1.30;;;0.80;99.90;;;;;;4976701;28;20227;-70
2021/01/11 09:44:22;;;;;;;2.75;1.52;;;0.90;99.90;;;;;;4970923;28;20831;-71
2021/01/11 09:46:51;;;;;;;2.50;1.80;;;0.90;99.90;;;;;;4979429;28;20215;-72
2021/01/11 09:49:17;;;;;;;2.28;1.60;;;0.90;99.90;;;;;;4971882;28;20199;-72
2021/01/11 09:51:43;;;;;;;5.53;1.77;;;0.90;99.90;;;;;;4972852;28;20270;-71
2021/01/11 09:54:09;;;;;;;4.45;1.88;;;0.80;99.90;;;;;;4971208;28;20207;-71
2021/01/11 09:56:37;;;;;;;4.13;1.80;;;0.80;99.90;;;;;;4972081;28;20200;-73
2021/01/11 09:59:04;;;;;;;6.05;1.80;;;0.80;99.90;;;;;;4973522;28;20195;-72
2021/01/11 10:01:41;;;;;;;1.95;1.65;;;0.80;99.90;;;;;;4977660;28;20674;-72
2021/01/11 10:04:07;;;;;;;4.97;1.88;;;0.80;99.90;;;;;;4971512;28;20196;-71
2021/01/11 10:06:44;;;;;;;2.60;2.00;;;0.80;99.90;;;;;;4978076;28;20217;-72
2021/01/11 10:09:14;;;;;;;4.50;1.92;;;0.80;99.90;;;;;;4975911;28;20210;-71
2021/01/11 10:11:40;;;;;;;3.08;2.00;;;0.80;99.90;;;;;;4979156;28;20199;-71
2021/01/11 10:14:07;;;;;;;3.75;2.00;;;0.80;99.90;;;;;;4975364;28;20531;-74
2021/01/11 10:16:33;;;;;;;2.25;1.75;;;0.80;99.90;;;;;;4980279;28;20211;-72
2021/01/11 10:18:59;;;;;;;2.90;2.10;;;0.80;99.90;;;;;;4979382;28;20753;-72
2021/01/11 10:21:26;;;;;;;3.97;1.95;;;0.80;99.90;;;;;;4981530;28;20298;-72
2021/01/11 10:23:51;;;;;;;3.25;2.08;;;0.70;99.90;;;;;;4977892;28;20200;-73
2021/01/11 10:26:22;;;;;;;4.53;2.20;;;0.70;99.90;;;;;;4977004;28;20294;-72
2021/01/11 10:28:49;;;;;;;3.70;2.13;;;0.70;99.90;;;;;;4979054;28;20200;-72
2021/01/11 10:31:15;;;;;;;3.47;1.90;;;0.70;99.90;;;;;;4979773;28;20204;-73
2021/01/11 10:33:43;;;;;;;1.85;1.50;;;0.60;99.90;;;;;;4978340;28;20295;-73
2021/01/11 10:36:09;;;;;;;1.90;1.30;;;0.60;99.90;;;;;;4974581;28;20594;-72
2021/01/11 10:38:35;;;;;;;1.95;1.60;;;0.60;99.90;;;;;;4975386;28;20206;-73
2021/01/11 10:41:01;;;;;;;1.40;1.30;;;0.60;99.90;;;;;;4973952;28;20188;-73
2021/01/11 10:43:27;;;;;;;2.17;1.20;;;0.60;99.90;;;;;;4973252;28;20300;-73
2021/01/11 10:45:53;;;;;;;1.58;1.20;;;0.60;99.90;;;;;;4973706;28;20208;-72
2021/01/11 10:48:19;;;;;;;1.48;1.30;;;0.60;99.90;;;;;;4973064;28;20214;-73
2021/01/11 10:50:44;;;;;;;1.25;1.15;;;0.50;99.90;;;;;;4971917;28;20211;-72
2021/01/11 10:53:10;;;;;;;2.42;1.33;;;0.50;99.90;;;;;;4979376;28;20195;-73
2021/01/11 10:55:36;;;;;;;2.10;1.40;;;0.50;99.90;;;;;;4977638;28;20230;-73
2021/01/11 10:58:01;;;;;;;1.65;1.45;;;0.50;99.90;;;;;;4972435;28;20212;-73
2021/01/11 11:00:28;;;;;;;2.50;1.38;;;0.50;99.90;;;;;;4975069;28;20346;-73
2021/01/11 11:02:54;;;;;;;1.40;1.20;;;0.50;99.90;;;;;;4977840;28;20219;-72
2021/01/11 11:05:19;;;;;;;2.33;1.10;;;0.50;99.90;;;;;;4970523;28;20231;-73
2021/01/11 11:07:45;;;;;;;1.58;1.20;;;0.50;99.90;;;;;;4981180;28;21413;-74
2021/01/11 11:10:11;;;;;;;7.53;1.33;;;0.50;99.90;;;;;;4975127;28;20942;-73
2021/01/11 11:12:37;;;;;;;1.20;1.10;;;0.50;99.90;;;;;;4974131;28;20207;-72
2021/01/11 11:15:03;;;;;;;1.88;1.20;;;0.50;99.90;;;;;;4977040;28;20192;-73
2021/01/11 11:17:32;;;;;;;1.52;1.33;;;0.50;99.90;;;;;;4983187;28;20219;-74
2021/01/11 11:19:58;;;;;;;1.38;1.10;;;0.50;99.90;;;;;;4979544;28;20268;-73
2021/01/11 11:22:24;;;;;;;1.98;1.40;;;0.50;99.90;;;;;;4978629;28;20207;-74
2021/01/11 11:24:51;;;;;;;1.10;1.00;;;0.50;99.90;;;;;;4975637;28;20200;-73
2021/01/11 11:27:17;;;;;;;0.90;0.90;;;0.50;99.90;;;;;;4975552;28;20216;-73
2021/01/11 11:29:42;;;;;;;1.45;1.00;;;0.50;99.90;;;;;;4975393;28;20212;-73
2021/01/11 11:32:08;;;;;;;1.25;1.15;;;0.50;99.90;;;;;;4975935;28;20199;-73
2021/01/11 11:34:34;;;;;;;1.13;0.80;;;0.50;99.90;;;;;;4980461;28;20199;-72
2021/01/11 11:37:00;;;;;;;0.90;0.90;;;0.50;99.90;;;;;;4978066;28;20223;-72
2021/01/11 11:39:26;;;;;;;1.15;1.05;;;0.50;99.90;;;;;;4973130;28;20269;-72
2021/01/11 11:41:59;;;;;;;1.48;1.33;;;0.50;99.90;;;;;;4977450;28;20211;-72
2021/01/11 11:44:25;;;;;;;1.13;1.00;;;0.50;99.90;;;;;;4972473;28;20195;-72
2021/01/11 11:46:52;;;;;;;1.48;0.93;;;0.50;99.90;;;;;;4977012;28;20212;-72
2021/01/11 11:49:18;;;;;;;1.25;0.93;;;0.50;99.90;;;;;;4975249;28;20195;-74
2021/01/11 11:51:44;;;;;;;1.27;1.13;;;0.50;99.90;;;;;;4977491;28;20513;-71
2021/01/11 11:54:10;;;;;;;1.92;1.40;;;0.60;99.90;;;;;;4973437;28;20200;-73
2021/01/11 11:56:40;;;;;;;2.33;1.10;;;0.50;99.90;;;;;;4972783;28;20209;-72
2021/01/11 11:59:07;;;;;;;1.73;1.30;;;0.60;99.90;;;;;;4969672;28;20188;-74
2021/01/11 12:01:40;;;;;;;1.38;1.10;;;0.50;99.90;;;;;;4975811;28;20203;-73
2021/01/11 12:04:07;;;;;;;3.42;1.85;;;0.50;99.90;;;;;;4975052;28;20283;-74
2021/01/11 12:06:44;;;;;;;9.65;2.15;;;0.50;99.90;;;;;;4968089;28;20212;-70
2021/01/11 12:09:11;;;;;;;1.92;1.40;;;0.50;99.90;;;;;;4973859;28;20730;-73
2021/01/11 12:11:43;;;;;;;2.15;1.38;;;0.50;99.90;;;;;;4973158;28;20195;-72
2021/01/11 12:14:09;;;;;;;7.32;2.63;;;0.50;99.90;;;;;;4970957;28;20231;-74
2021/01/11 12:16:35;;;;;;;4.50;1.77;;;0.50;99.90;;;;;;4973110;28;20204;-72
2021/01/11 12:19:01;;;;;;;4.25;1.17;;;0.50;99.90;;;;;;4969713;28;20322;-72
2021/01/11 12:21:34;;;;;;;2.72;1.30;;;0.50;99.90;;;;;;4975828;28;20828;-73
2021/01/11 12:24:01;;;;;;;3.30;1.10;;;0.50;99.90;;;;;;4973597;28;20279;-72
2021/01/11 12:26:27;;;;;;;1.20;1.10;;;0.50;99.90;;;;;;4966106;28;20208;-71
2021/01/11 12:28:54;;;;;;;1.30;1.17;;;0.50;99.90;;;;;;4976262;28;20193;-71
2021/01/11 12:31:27;;;;;;;1.02;1.00;;;0.50;99.90;;;;;;4970686;28;20239;-73
2021/01/11 12:33:53;;;;;;;0.80;0.73;;;0.40;99.90;;;;;;4973077;28;20196;-70
2021/01/11 12:36:23;;;;;;;0.95;0.90;;;0.40;99.90;;;;;;4972282;28;20226;-72
2021/01/11 12:38:49;;;;;;;0.75;0.75;;;0.50;99.90;;;;;;4975709;28;20206;-73
2021/01/11 12:41:17;;;;;;;1.67;1.23;;;0.50;99.90;;;;;;4970145;28;20966;-72
2021/01/11 12:43:43;;;;;;;1.02;1.00;;;0.40;99.90;;;;;;4972892;28;20211;-71
2021/01/11 12:46:10;;;;;;;1.00;1.00;;;0.50;99.90;;;;;;4967495;28;20211;-72
2021/01/11 12:48:36;;;;;;;2.03;1.40;;;0.40;99.90;;;;;;4971894;28;20261;-72
2021/01/11 12:51:02;;;;;;;2.33;1.40;;;0.40;99.90;;;;;;4971560;28;20618;-71
2021/01/11 12:53:27;;;;;;;2.85;1.50;;;0.40;99.90;;;;;;4969200;28;20232;-72
2021/01/11 12:55:53;;;;;;;1.50;1.20;;;0.40;99.90;;;;;;4975102;28;20195;-71
2021/01/11 12:58:19;;;;;;;7.53;1.50;;;0.50;99.90;;;;;;4973003;28;20989;-72
2021/01/11 13:00:45;;;;;;;1.63;1.30;;;0.40;99.90;;;;;;4968766;28;20207;-72
2021/01/11 13:03:11;;;;;;;3.53;1.40;;;0.40;99.90;;;;;;4972889;28;20771;-73